sensor_id;sensor_type;location;lat;lon;timestamp;P1;durP1;ratioP1;P2;durP2;ratioP2
62709;SDS011;48770;51.624;5.886;2022-07-29T00:02:01;0.55;;;0.40;;
62709;SDS011;48770;51.624;5.886;2022-07-29T00:04:26;0.85;;;0.43;;
62709;SDS011;48770;51.624;5.886;2022-07-29T00:06:51;0.47;;;0.30;;
62709;SDS011;48770;51.624;5.886;2022-07-29T00:09:17;1.02;;;0.45;;
62709;SDS011;48770;51.624;5.886;2022-07-29T00:11:42;0.70;;;0.38;;
62709;SDS011;48770;51.624;5.886;2022-07-29T00:14:08;0.75;;;0.40;;
62709;SDS011;48770;51.624;5.886;2022-07-29T00:16:33;0.50;;;0.30;;
62709;SDS011;48770;51.624;5.886;2022-07-29T00:18:59;2.35;;;0.30;;
62709;SDS011;48770;51.624;5.886;2022-07-29T00:21:24;0.50;;;0.35;;
62709;SDS011;48770;51.624;5.886;2022-07-29T00:23:49;1.02;;;0.50;;
62709;SDS011;48770;51.624;5.886;2022-07-29T00:26:14;1.00;;;0.30;;
62709;SDS011;48770;51.624;5.886;2022-07-29T00:28:40;0.50;;;0.30;;
62709;SDS011;48770;51.624;5.886;2022-07-29T00:31:05;1.13;;;0.40;;
62709;SDS011;48770;51.624;5.886;2022-07-29T00:33:31;0.80;;;0.40;;
62709;SDS011;48770;51.624;5.886;2022-07-29T00:35:56;1.02;;;0.40;;
62709;SDS011;48770;51.624;5.886;2022-07-29T00:38:21;1.45;;;0.60;;
62709;SDS011;48770;51.624;5.886;2022-07-29T00:40:47;0.70;;;0.30;;
62709;SDS011;48770;51.624;5.886;2022-07-29T00:43:13;3.08;;;0.40;;
62709;SDS011;48770;51.624;5.886;2022-07-29T00:45:40;0.30;;;0.30;;
62709;SDS011;48770;51.624;5.886;2022-07-29T00:48:06;0.65;;;0.30;;
62709;SDS011;48770;51.624;5.886;2022-07-29T00:50:33;0.38;;;0.30;;
62709;SDS011;48770;51.624;5.886;2022-07-29T00:53:00;1.27;;;0.40;;
62709;SDS011;48770;51.624;5.886;2022-07-29T00:55:26;1.58;;;0.40;;
62709;SDS011;48770;51.624;5.886;2022-07-29T00:57:52;1.98;;;0.40;;
62709;SDS011;48770;51.624;5.886;2022-07-29T01:00:19;0.80;;;0.40;;
62709;SDS011;48770;51.624;5.886;2022-07-29T01:02:47;0.40;;;0.30;;
62709;SDS011;48770;51.624;5.886;2022-07-29T01:05:13;1.58;;;0.50;;
62709;SDS011;48770;51.624;5.886;2022-07-29T01:07:41;1.92;;;0.50;;
62709;SDS011;48770;51.624;5.886;2022-07-29T01:10:07;1.60;;;0.57;;
62709;SDS011;48770;51.624;5.886;2022-07-29T01:12:35;1.60;;;0.50;;
62709;SDS011;48770;51.624;5.886;2022-07-29T01:15:03;1.73;;;0.50;;
62709;SDS011;48770;51.624;5.886;2022-07-29T01:17:33;1.52;;;0.55;;
62709;SDS011;48770;51.624;5.886;2022-07-29T01:20:17;1.27;;;0.50;;
62709;SDS011;48770;51.624;5.886;2022-07-29T01:31:00;1.30;;;0.50;;
62709;SDS011;48770;51.624;5.886;2022-07-29T01:33:29;2.15;;;0.80;;
62709;SDS011;48770;51.624;5.886;2022-07-29T01:36:14;2.17;;;0.40;;
62709;SDS011;48770;51.624;5.886;2022-07-29T01:38:44;1.80;;;0.57;;
62709;SDS011;48770;51.624;5.886;2022-07-29T01:41:15;0.98;;;0.40;;
62709;SDS011;48770;51.624;5.886;2022-07-29T01:43:53;0.95;;;0.50;;
62709;SDS011;48770;51.624;5.886;2022-07-29T01:46:36;2.25;;;0.77;;
62709;SDS011;48770;51.624;5.886;2022-07-29T01:49:14;4.15;;;0.65;;
62709;SDS011;48770;51.624;5.886;2022-07-29T01:51:49;2.75;;;0.65;;
62709;SDS011;48770;51.624;5.886;2022-07-29T01:57:07;0.75;;;0.50;;
62709;SDS011;48770;51.624;5.886;2022-07-29T01:59:36;2.85;;;0.70;;
62709;SDS011;48770;51.624;5.886;2022-07-29T02:02:03;1.42;;;0.57;;
62709;SDS011;48770;51.624;5.886;2022-07-29T02:04:31;2.05;;;0.60;;
62709;SDS011;48770;51.624;5.886;2022-07-29T02:07:00;1.38;;;0.60;;
62709;SDS011;48770;51.624;5.886;2022-07-29T02:09:29;1.15;;;0.47;;
62709;SDS011;48770;51.624;5.886;2022-07-29T02:11:56;1.35;;;0.50;;
62709;SDS011;48770;51.624;5.886;2022-07-29T02:14:24;1.38;;;0.60;;
62709;SDS011;48770;51.624;5.886;2022-07-29T02:16:53;1.00;;;0.60;;
62709;SDS011;48770;51.624;5.886;2022-07-29T02:19:21;3.53;;;0.70;;
62709;SDS011;48770;51.624;5.886;2022-07-29T02:21:49;1.05;;;0.38;;
62709;SDS011;48770;51.624;5.886;2022-07-29T02:24:18;2.15;;;0.57;;
62709;SDS011;48770;51.624;5.886;2022-07-29T02:26:46;0.93;;;0.50;;
62709;SDS011;48770;51.624;5.886;2022-07-29T02:29:14;1.25;;;0.52;;
62709;SDS011;48770;51.624;5.886;2022-07-29T02:31:41;1.33;;;0.60;;
62709;SDS011;48770;51.624;5.886;2022-07-29T02:34:12;1.70;;;0.60;;
62709;SDS011;48770;51.624;5.886;2022-07-29T02:36:39;0.98;;;0.43;;
62709;SDS011;48770;51.624;5.886;2022-07-29T02:39:07;0.82;;;0.50;;
62709;SDS011;48770;51.624;5.886;2022-07-29T02:41:35;1.50;;;0.50;;
62709;SDS011;48770;51.624;5.886;2022-07-29T02:44:13;1.20;;;0.60;;
62709;SDS011;48770;51.624;5.886;2022-07-29T02:46:50;1.17;;;0.70;;
62709;SDS011;48770;51.624;5.886;2022-07-29T02:52:16;1.48;;;0.60;;
62709;SDS011;48770;51.624;5.886;2022-07-29T02:57:36;1.45;;;0.45;;
62709;SDS011;48770;51.624;5.886;2022-07-29T03:00:08;1.00;;;0.40;;
62709;SDS011;48770;51.624;5.886;2022-07-29T03:02:36;1.23;;;0.60;;
62709;SDS011;48770;51.624;5.886;2022-07-29T03:05:04;0.80;;;0.50;;
62709;SDS011;48770;51.624;5.886;2022-07-29T03:07:33;0.55;;;0.40;;
62709;SDS011;48770;51.624;5.886;2022-07-29T03:10:00;0.60;;;0.38;;
62709;SDS011;48770;51.624;5.886;2022-07-29T03:12:26;1.80;;;0.52;;
62709;SDS011;48770;51.624;5.886;2022-07-29T03:14:53;2.35;;;0.60;;
62709;SDS011;48770;51.624;5.886;2022-07-29T03:17:20;2.13;;;0.47;;
62709;SDS011;48770;51.624;5.886;2022-07-29T03:19:46;1.60;;;0.57;;
62709;SDS011;48770;51.624;5.886;2022-07-29T03:22:12;0.95;;;0.57;;
62709;SDS011;48770;51.624;5.886;2022-07-29T03:24:39;1.23;;;0.47;;
62709;SDS011;48770;51.624;5.886;2022-07-29T03:27:04;1.80;;;0.60;;
62709;SDS011;48770;51.624;5.886;2022-07-29T03:29:30;1.70;;;0.60;;
62709;SDS011;48770;51.624;5.886;2022-07-29T03:31:56;1.42;;;0.50;;
62709;SDS011;48770;51.624;5.886;2022-07-29T03:34:22;1.83;;;0.50;;
62709;SDS011;48770;51.624;5.886;2022-07-29T03:36:48;0.65;;;0.40;;
62709;SDS011;48770;51.624;5.886;2022-07-29T03:39:15;0.57;;;0.40;;
62709;SDS011;48770;51.624;5.886;2022-07-29T03:41:46;1.20;;;0.32;;
62709;SDS011;48770;51.624;5.886;2022-07-29T03:44:14;0.90;;;0.43;;
62709;SDS011;48770;51.624;5.886;2022-07-29T03:46:41;0.90;;;0.52;;
62709;SDS011;48770;51.624;5.886;2022-07-29T03:49:09;0.95;;;0.52;;
62709;SDS011;48770;51.624;5.886;2022-07-29T03:51:36;1.35;;;0.40;;
62709;SDS011;48770;51.624;5.886;2022-07-29T03:54:02;1.02;;;0.35;;
62709;SDS011;48770;51.624;5.886;2022-07-29T03:56:29;1.42;;;0.50;;
62709;SDS011;48770;51.624;5.886;2022-07-29T03:58:57;1.27;;;0.47;;
62709;SDS011;48770;51.624;5.886;2022-07-29T04:01:23;2.22;;;0.45;;
62709;SDS011;48770;51.624;5.886;2022-07-29T04:03:50;0.93;;;0.40;;
62709;SDS011;48770;51.624;5.886;2022-07-29T04:06:15;1.95;;;0.50;;
62709;SDS011;48770;51.624;5.886;2022-07-29T04:08:41;1.08;;;0.50;;
62709;SDS011;48770;51.624;5.886;2022-07-29T04:11:06;1.00;;;0.57;;
62709;SDS011;48770;51.624;5.886;2022-07-29T04:13:32;0.98;;;0.40;;
62709;SDS011;48770;51.624;5.886;2022-07-29T04:15:57;0.85;;;0.43;;
62709;SDS011;48770;51.624;5.886;2022-07-29T04:18:23;0.88;;;0.47;;
62709;SDS011;48770;51.624;5.886;2022-07-29T04:20:49;0.88;;;0.38;;
62709;SDS011;48770;51.624;5.886;2022-07-29T04:23:14;0.40;;;0.30;;
62709;SDS011;48770;51.624;5.886;2022-07-29T04:25:40;1.02;;;0.50;;
62709;SDS011;48770;51.624;5.886;2022-07-29T04:28:06;0.90;;;0.40;;
62709;SDS011;48770;51.624;5.886;2022-07-29T04:30:33;1.75;;;0.60;;
62709;SDS011;48770;51.624;5.886;2022-07-29T04:33:00;0.35;;;0.30;;
62709;SDS011;48770;51.624;5.886;2022-07-29T04:35:27;1.85;;;0.60;;
62709;SDS011;48770;51.624;5.886;2022-07-29T04:37:53;1.83;;;0.65;;
62709;SDS011;48770;51.624;5.886;2022-07-29T04:40:19;1.45;;;0.47;;
62709;SDS011;48770;51.624;5.886;2022-07-29T04:42:44;0.65;;;0.38;;
62709;SDS011;48770;51.624;5.886;2022-07-29T04:45:10;1.23;;;0.52;;
62709;SDS011;48770;51.624;5.886;2022-07-29T04:47:35;0.60;;;0.40;;
62709;SDS011;48770;51.624;5.886;2022-07-29T04:50:00;0.50;;;0.38;;
62709;SDS011;48770;51.624;5.886;2022-07-29T04:52:26;1.52;;;0.40;;
62709;SDS011;48770;51.624;5.886;2022-07-29T04:54:51;1.27;;;0.47;;
62709;SDS011;48770;51.624;5.886;2022-07-29T04:57:16;2.25;;;0.68;;
62709;SDS011;48770;51.624;5.886;2022-07-29T04:59:42;0.73;;;0.40;;
62709;SDS011;48770;51.624;5.886;2022-07-29T05:02:07;0.95;;;0.40;;
62709;SDS011;48770;51.624;5.886;2022-07-29T05:04:32;0.90;;;0.40;;
62709;SDS011;48770;51.624;5.886;2022-07-29T05:06:58;0.77;;;0.52;;
62709;SDS011;48770;51.624;5.886;2022-07-29T05:09:23;2.60;;;0.60;;
62709;SDS011;48770;51.624;5.886;2022-07-29T05:11:48;0.70;;;0.40;;
62709;SDS011;48770;51.624;5.886;2022-07-29T05:14:13;1.48;;;0.60;;
62709;SDS011;48770;51.624;5.886;2022-07-29T05:16:39;0.65;;;0.40;;
62709;SDS011;48770;51.624;5.886;2022-07-29T05:19:05;0.90;;;0.50;;
62709;SDS011;48770;51.624;5.886;2022-07-29T05:21:30;1.88;;;0.35;;
62709;SDS011;48770;51.624;5.886;2022-07-29T05:23:56;0.57;;;0.32;;
62709;SDS011;48770;51.624;5.886;2022-07-29T05:26:21;1.13;;;0.50;;
62709;SDS011;48770;51.624;5.886;2022-07-29T05:28:47;0.65;;;0.50;;
62709;SDS011;48770;51.624;5.886;2022-07-29T05:31:12;0.65;;;0.45;;
62709;SDS011;48770;51.624;5.886;2022-07-29T05:33:39;0.70;;;0.60;;
62709;SDS011;48770;51.624;5.886;2022-07-29T05:36:05;0.65;;;0.50;;
62709;SDS011;48770;51.624;5.886;2022-07-29T05:38:31;0.75;;;0.40;;
62709;SDS011;48770;51.624;5.886;2022-07-29T05:40:58;1.17;;;0.43;;
62709;SDS011;48770;51.624;5.886;2022-07-29T05:43:24;1.00;;;0.50;;
62709;SDS011;48770;51.624;5.886;2022-07-29T05:45:50;2.08;;;0.52;;
62709;SDS011;48770;51.624;5.886;2022-07-29T05:48:15;0.98;;;0.52;;
62709;SDS011;48770;51.624;5.886;2022-07-29T05:50:41;1.00;;;0.50;;
62709;SDS011;48770;51.624;5.886;2022-07-29T05:53:06;0.55;;;0.50;;
62709;SDS011;48770;51.624;5.886;2022-07-29T05:55:31;0.75;;;0.32;;
62709;SDS011;48770;51.624;5.886;2022-07-29T05:57:57;0.70;;;0.30;;
62709;SDS011;48770;51.624;5.886;2022-07-29T06:00:22;0.70;;;0.70;;
62709;SDS011;48770;51.624;5.886;2022-07-29T06:02:47;0.60;;;0.25;;
62709;SDS011;48770;51.624;5.886;2022-07-29T06:05:12;1.08;;;0.50;;
62709;SDS011;48770;51.624;5.886;2022-07-29T06:07:38;0.47;;;0.30;;
62709;SDS011;48770;51.624;5.886;2022-07-29T06:10:04;1.00;;;0.40;;
62709;SDS011;48770;51.624;5.886;2022-07-29T06:12:29;1.95;;;0.40;;
62709;SDS011;48770;51.624;5.886;2022-07-29T06:14:55;1.33;;;0.63;;
62709;SDS011;48770;51.624;5.886;2022-07-29T06:17:20;1.23;;;0.50;;
62709;SDS011;48770;51.624;5.886;2022-07-29T06:19:46;0.60;;;0.40;;
62709;SDS011;48770;51.624;5.886;2022-07-29T06:22:11;0.32;;;0.25;;
62709;SDS011;48770;51.624;5.886;2022-07-29T06:24:36;1.07;;;0.50;;
62709;SDS011;48770;51.624;5.886;2022-07-29T06:27:06;0.63;;;0.40;;
62709;SDS011;48770;51.624;5.886;2022-07-29T06:29:31;1.95;;;0.55;;
62709;SDS011;48770;51.624;5.886;2022-07-29T06:31:56;1.25;;;0.40;;
62709;SDS011;48770;51.624;5.886;2022-07-29T06:34:22;1.30;;;0.70;;
62709;SDS011;48770;51.624;5.886;2022-07-29T06:36:47;0.98;;;0.50;;
62709;SDS011;48770;51.624;5.886;2022-07-29T06:39:14;1.00;;;0.40;;
62709;SDS011;48770;51.624;5.886;2022-07-29T06:41:39;1.42;;;0.70;;
62709;SDS011;48770;51.624;5.886;2022-07-29T06:44:05;0.57;;;0.57;;
62709;SDS011;48770;51.624;5.886;2022-07-29T06:46:30;0.52;;;0.50;;
62709;SDS011;48770;51.624;5.886;2022-07-29T06:48:55;0.88;;;0.50;;
62709;SDS011;48770;51.624;5.886;2022-07-29T06:51:21;0.82;;;0.50;;
62709;SDS011;48770;51.624;5.886;2022-07-29T06:53:46;0.65;;;0.47;;
62709;SDS011;48770;51.624;5.886;2022-07-29T06:56:11;1.90;;;0.60;;
62709;SDS011;48770;51.624;5.886;2022-07-29T06:58:38;0.65;;;0.40;;
62709;SDS011;48770;51.624;5.886;2022-07-29T07:01:05;1.20;;;0.70;;
62709;SDS011;48770;51.624;5.886;2022-07-29T07:03:31;1.50;;;0.50;;
62709;SDS011;48770;51.624;5.886;2022-07-29T07:05:56;1.05;;;0.50;;
62709;SDS011;48770;51.624;5.886;2022-07-29T07:08:22;1.05;;;0.60;;
62709;SDS011;48770;51.624;5.886;2022-07-29T07:10:48;1.30;;;0.70;;
62709;SDS011;48770;51.624;5.886;2022-07-29T07:13:14;0.80;;;0.40;;
62709;SDS011;48770;51.624;5.886;2022-07-29T07:15:42;0.88;;;0.55;;
62709;SDS011;48770;51.624;5.886;2022-07-29T07:18:08;1.45;;;0.40;;
62709;SDS011;48770;51.624;5.886;2022-07-29T07:20:33;4.13;;;0.57;;
62709;SDS011;48770;51.624;5.886;2022-07-29T07:22:59;0.50;;;0.50;;
62709;SDS011;48770;51.624;5.886;2022-07-29T07:25:25;2.42;;;0.77;;
62709;SDS011;48770;51.624;5.886;2022-07-29T07:27:50;0.90;;;0.70;;
62709;SDS011;48770;51.624;5.886;2022-07-29T07:30:15;0.45;;;0.38;;
62709;SDS011;48770;51.624;5.886;2022-07-29T07:32:41;1.00;;;0.65;;
62709;SDS011;48770;51.624;5.886;2022-07-29T07:35:08;1.42;;;0.40;;
62709;SDS011;48770;51.624;5.886;2022-07-29T07:37:34;1.27;;;0.73;;
62709;SDS011;48770;51.624;5.886;2022-07-29T07:40:00;1.73;;;0.50;;
62709;SDS011;48770;51.624;5.886;2022-07-29T07:42:25;0.50;;;0.40;;
62709;SDS011;48770;51.624;5.886;2022-07-29T07:44:51;0.47;;;0.47;;
62709;SDS011;48770;51.624;5.886;2022-07-29T07:47:16;1.35;;;0.70;;
62709;SDS011;48770;51.624;5.886;2022-07-29T07:49:47;0.73;;;0.52;;
62709;SDS011;48770;51.624;5.886;2022-07-29T07:52:14;0.90;;;0.55;;
62709;SDS011;48770;51.624;5.886;2022-07-29T07:54:41;0.90;;;0.52;;
62709;SDS011;48770;51.624;5.886;2022-07-29T07:57:10;1.00;;;0.60;;
62709;SDS011;48770;51.624;5.886;2022-07-29T07:59:36;2.17;;;0.60;;
62709;SDS011;48770;51.624;5.886;2022-07-29T08:02:02;1.10;;;0.85;;
62709;SDS011;48770;51.624;5.886;2022-07-29T08:04:27;0.95;;;0.65;;
62709;SDS011;48770;51.624;5.886;2022-07-29T08:06:53;0.95;;;0.63;;
62709;SDS011;48770;51.624;5.886;2022-07-29T08:09:19;1.50;;;0.55;;
62709;SDS011;48770;51.624;5.886;2022-07-29T08:11:45;0.85;;;0.50;;
62709;SDS011;48770;51.624;5.886;2022-07-29T08:14:10;1.08;;;0.40;;
62709;SDS011;48770;51.624;5.886;2022-07-29T08:16:36;0.93;;;0.60;;
62709;SDS011;48770;51.624;5.886;2022-07-29T08:19:01;0.90;;;0.70;;
62709;SDS011;48770;51.624;5.886;2022-07-29T08:21:26;0.57;;;0.50;;
62709;SDS011;48770;51.624;5.886;2022-07-29T08:23:52;0.77;;;0.60;;
62709;SDS011;48770;51.624;5.886;2022-07-29T08:26:20;1.20;;;0.68;;
62709;SDS011;48770;51.624;5.886;2022-07-29T08:28:47;1.85;;;0.80;;
62709;SDS011;48770;51.624;5.886;2022-07-29T08:31:15;2.88;;;0.60;;
62709;SDS011;48770;51.624;5.886;2022-07-29T08:33:41;0.88;;;0.50;;
62709;SDS011;48770;51.624;5.886;2022-07-29T08:36:07;0.60;;;0.47;;
62709;SDS011;48770;51.624;5.886;2022-07-29T08:38:32;0.73;;;0.60;;
62709;SDS011;48770;51.624;5.886;2022-07-29T08:41:00;0.77;;;0.68;;
62709;SDS011;48770;51.624;5.886;2022-07-29T08:43:25;1.45;;;0.57;;
62709;SDS011;48770;51.624;5.886;2022-07-29T08:45:52;1.27;;;0.70;;
62709;SDS011;48770;51.624;5.886;2022-07-29T08:48:19;1.88;;;0.60;;
62709;SDS011;48770;51.624;5.886;2022-07-29T08:50:49;0.80;;;0.60;;
62709;SDS011;48770;51.624;5.886;2022-07-29T08:53:18;1.02;;;0.60;;
62709;SDS011;48770;51.624;5.886;2022-07-29T08:55:48;1.20;;;0.73;;
62709;SDS011;48770;51.624;5.886;2022-07-29T08:58:17;0.47;;;0.47;;
62709;SDS011;48770;51.624;5.886;2022-07-29T09:00:49;0.73;;;0.60;;
62709;SDS011;48770;51.624;5.886;2022-07-29T09:03:19;1.30;;;0.70;;
62709;SDS011;48770;51.624;5.886;2022-07-29T09:05:48;1.10;;;0.60;;
62709;SDS011;48770;51.624;5.886;2022-07-29T09:08:14;1.77;;;0.57;;
62709;SDS011;48770;51.624;5.886;2022-07-29T09:10:40;0.98;;;0.40;;
62709;SDS011;48770;51.624;5.886;2022-07-29T09:13:05;1.00;;;0.60;;
62709;SDS011;48770;51.624;5.886;2022-07-29T09:15:31;0.60;;;0.50;;
62709;SDS011;48770;51.624;5.886;2022-07-29T09:17:56;0.60;;;0.32;;
62709;SDS011;48770;51.624;5.886;2022-07-29T09:20:23;2.20;;;0.60;;
62709;SDS011;48770;51.624;5.886;2022-07-29T09:22:49;0.52;;;0.40;;
62709;SDS011;48770;51.624;5.886;2022-07-29T09:25:36;0.70;;;0.50;;
62709;SDS011;48770;51.624;5.886;2022-07-29T09:28:09;0.60;;;0.52;;
62709;SDS011;48770;51.624;5.886;2022-07-29T09:30:38;0.73;;;0.40;;
62709;SDS011;48770;51.624;5.886;2022-07-29T09:33:15;1.02;;;0.55;;
62709;SDS011;48770;51.624;5.886;2022-07-29T09:35:40;1.25;;;0.60;;
62709;SDS011;48770;51.624;5.886;2022-07-29T09:38:10;1.15;;;0.50;;
62709;SDS011;48770;51.624;5.886;2022-07-29T09:40:39;0.70;;;0.50;;
62709;SDS011;48770;51.624;5.886;2022-07-29T09:43:11;0.60;;;0.60;;
62709;SDS011;48770;51.624;5.886;2022-07-29T09:45:38;0.73;;;0.50;;
62709;SDS011;48770;51.624;5.886;2022-07-29T09:48:14;1.00;;;0.50;;
62709;SDS011;48770;51.624;5.886;2022-07-29T09:50:42;0.80;;;0.60;;
62709;SDS011;48770;51.624;5.886;2022-07-29T09:53:10;0.82;;;0.40;;
62709;SDS011;48770;51.624;5.886;2022-07-29T10:00:43;0.57;;;0.55;;
62709;SDS011;48770;51.624;5.886;2022-07-29T10:03:09;1.02;;;0.50;;
62709;SDS011;48770;51.624;5.886;2022-07-29T10:05:35;0.60;;;0.50;;
62709;SDS011;48770;51.624;5.886;2022-07-29T10:08:00;1.17;;;0.47;;
62709;SDS011;48770;51.624;5.886;2022-07-29T10:10:33;1.00;;;0.57;;
62709;SDS011;48770;51.624;5.886;2022-07-29T10:13:08;0.77;;;0.50;;
62709;SDS011;48770;51.624;5.886;2022-07-29T10:15:36;1.13;;;0.60;;
62709;SDS011;48770;51.624;5.886;2022-07-29T10:18:05;0.47;;;0.43;;
62709;SDS011;48770;51.624;5.886;2022-07-29T10:20:32;1.10;;;0.50;;
62709;SDS011;48770;51.624;5.886;2022-07-29T10:22:57;0.50;;;0.50;;
62709;SDS011;48770;51.624;5.886;2022-07-29T10:25:23;1.00;;;0.80;;
62709;SDS011;48770;51.624;5.886;2022-07-29T10:27:49;0.70;;;0.57;;
62709;SDS011;48770;51.624;5.886;2022-07-29T10:30:20;0.38;;;0.30;;
62709;SDS011;48770;51.624;5.886;2022-07-29T10:41:05;0.90;;;0.60;;
62709;SDS011;48770;51.624;5.886;2022-07-29T10:43:51;0.93;;;0.50;;
62709;SDS011;48770;51.624;5.886;2022-07-29T10:46:20;0.85;;;0.50;;
62709;SDS011;48770;51.624;5.886;2022-07-29T10:59:43;0.90;;;0.60;;
62709;SDS011;48770;51.624;5.886;2022-07-29T11:05:16;1.58;;;0.70;;
62709;SDS011;48770;51.624;5.886;2022-07-29T11:10:37;0.73;;;0.70;;
62709;SDS011;48770;51.624;5.886;2022-07-29T11:13:02;1.27;;;0.80;;
62709;SDS011;48770;51.624;5.886;2022-07-29T11:15:28;0.60;;;0.60;;
62709;SDS011;48770;51.624;5.886;2022-07-29T11:22:59;0.65;;;0.60;;
62709;SDS011;48770;51.624;5.886;2022-07-29T11:25:25;2.95;;;1.10;;
62709;SDS011;48770;51.624;5.886;2022-07-29T11:27:51;2.30;;;1.13;;
62709;SDS011;48770;51.624;5.886;2022-07-29T11:30:19;2.42;;;0.80;;
62709;SDS011;48770;51.624;5.886;2022-07-29T11:32:44;3.38;;;1.33;;
62709;SDS011;48770;51.624;5.886;2022-07-29T11:35:15;1.48;;;1.00;;
62709;SDS011;48770;51.624;5.886;2022-07-29T11:37:42;1.17;;;0.82;;
62709;SDS011;48770;51.624;5.886;2022-07-29T11:40:09;9.00;;;1.17;;
62709;SDS011;48770;51.624;5.886;2022-07-29T11:42:37;1.20;;;0.95;;
62709;SDS011;48770;51.624;5.886;2022-07-29T11:47:31;4.72;;;1.30;;
62709;SDS011;48770;51.624;5.886;2022-07-29T11:50:06;1.85;;;1.23;;
62709;SDS011;48770;51.624;5.886;2022-07-29T11:52:40;2.92;;;1.75;;
62709;SDS011;48770;51.624;5.886;2022-07-29T11:55:12;2.83;;;1.85;;
62709;SDS011;48770;51.624;5.886;2022-07-29T12:03:04;9.07;;;5.18;;
62709;SDS011;48770;51.624;5.886;2022-07-29T12:05:38;9.75;;;5.75;;
62709;SDS011;48770;51.624;5.886;2022-07-29T12:08:08;8.75;;;5.47;;
62709;SDS011;48770;51.624;5.886;2022-07-29T12:10:35;8.25;;;4.90;;
62709;SDS011;48770;51.624;5.886;2022-07-29T12:13:01;8.77;;;4.90;;
62709;SDS011;48770;51.624;5.886;2022-07-29T12:15:26;6.43;;;4.05;;
62709;SDS011;48770;51.624;5.886;2022-07-29T12:17:52;7.20;;;3.65;;
62709;SDS011;48770;51.624;5.886;2022-07-29T12:20:24;6.28;;;3.20;;
62709;SDS011;48770;51.624;5.886;2022-07-29T12:22:52;5.40;;;2.78;;
62709;SDS011;48770;51.624;5.886;2022-07-29T12:25:18;6.50;;;2.70;;
62709;SDS011;48770;51.624;5.886;2022-07-29T12:27:44;3.85;;;2.33;;
62709;SDS011;48770;51.624;5.886;2022-07-29T12:30:12;4.13;;;2.67;;
62709;SDS011;48770;51.624;5.886;2022-07-29T12:32:44;2.83;;;2.05;;
62709;SDS011;48770;51.624;5.886;2022-07-29T12:35:12;4.28;;;2.70;;
62709;SDS011;48770;51.624;5.886;2022-07-29T12:37:42;3.13;;;1.95;;
62709;SDS011;48770;51.624;5.886;2022-07-29T12:40:11;3.60;;;2.28;;
62709;SDS011;48770;51.624;5.886;2022-07-29T12:42:38;4.15;;;1.85;;
62709;SDS011;48770;51.624;5.886;2022-07-29T12:45:04;3.63;;;2.17;;
62709;SDS011;48770;51.624;5.886;2022-07-29T12:47:30;2.60;;;1.52;;
62709;SDS011;48770;51.624;5.886;2022-07-29T12:50:09;4.00;;;1.63;;
62709;SDS011;48770;51.624;5.886;2022-07-29T12:52:36;3.25;;;1.55;;
62709;SDS011;48770;51.624;5.886;2022-07-29T12:55:02;3.55;;;1.58;;
62709;SDS011;48770;51.624;5.886;2022-07-29T12:57:28;1.65;;;1.40;;
62709;SDS011;48770;51.624;5.886;2022-07-29T13:00:07;5.57;;;2.15;;
62709;SDS011;48770;51.624;5.886;2022-07-29T13:02:36;4.07;;;1.38;;
62709;SDS011;48770;51.624;5.886;2022-07-29T13:05:03;2.65;;;1.75;;
62709;SDS011;48770;51.624;5.886;2022-07-29T13:07:30;3.17;;;1.58;;
62709;SDS011;48770;51.624;5.886;2022-07-29T13:10:16;3.22;;;1.50;;
62709;SDS011;48770;51.624;5.886;2022-07-29T13:15:46;2.17;;;1.02;;
62709;SDS011;48770;51.624;5.886;2022-07-29T13:18:33;1.88;;;1.30;;
62709;SDS011;48770;51.624;5.886;2022-07-29T13:21:13;1.15;;;1.05;;
62709;SDS011;48770;51.624;5.886;2022-07-29T13:23:40;3.60;;;1.42;;
62709;SDS011;48770;51.624;5.886;2022-07-29T13:26:06;1.45;;;1.10;;
62709;SDS011;48770;51.624;5.886;2022-07-29T13:28:36;1.92;;;1.08;;
62709;SDS011;48770;51.624;5.886;2022-07-29T13:31:02;2.40;;;1.10;;
62709;SDS011;48770;51.624;5.886;2022-07-29T13:33:29;2.17;;;1.02;;
62709;SDS011;48770;51.624;5.886;2022-07-29T13:35:55;2.28;;;1.02;;
62709;SDS011;48770;51.624;5.886;2022-07-29T13:38:20;1.70;;;1.05;;
62709;SDS011;48770;51.624;5.886;2022-07-29T13:40:46;2.50;;;1.02;;
62709;SDS011;48770;51.624;5.886;2022-07-29T13:43:12;1.23;;;0.88;;
62709;SDS011;48770;51.624;5.886;2022-07-29T13:45:37;4.53;;;1.20;;
62709;SDS011;48770;51.624;5.886;2022-07-29T13:48:03;2.35;;;1.20;;
62709;SDS011;48770;51.624;5.886;2022-07-29T13:50:29;3.40;;;1.35;;
62709;SDS011;48770;51.624;5.886;2022-07-29T13:52:54;4.07;;;1.17;;
62709;SDS011;48770;51.624;5.886;2022-07-29T13:55:19;3.40;;;1.20;;
62709;SDS011;48770;51.624;5.886;2022-07-29T13:57:45;1.92;;;1.10;;
62709;SDS011;48770;51.624;5.886;2022-07-29T14:00:11;3.85;;;1.30;;
62709;SDS011;48770;51.624;5.886;2022-07-29T14:02:37;3.20;;;1.08;;
62709;SDS011;48770;51.624;5.886;2022-07-29T14:05:03;1.73;;;1.00;;
62709;SDS011;48770;51.624;5.886;2022-07-29T14:07:30;3.45;;;1.63;;
62709;SDS011;48770;51.624;5.886;2022-07-29T14:09:55;264.85;;;16.13;;
62709;SDS011;48770;51.624;5.886;2022-07-29T14:12:21;115.28;;;7.75;;
62709;SDS011;48770;51.624;5.886;2022-07-29T14:14:47;86.43;;;5.60;;
62709;SDS011;48770;51.624;5.886;2022-07-29T14:17:14;73.13;;;5.22;;
62709;SDS011;48770;51.624;5.886;2022-07-29T14:19:39;51.65;;;3.90;;
62709;SDS011;48770;51.624;5.886;2022-07-29T14:22:05;29.23;;;3.42;;
62709;SDS011;48770;51.624;5.886;2022-07-29T14:24:32;28.13;;;2.92;;
62709;SDS011;48770;51.624;5.886;2022-07-29T14:26:58;13.45;;;2.35;;
62709;SDS011;48770;51.624;5.886;2022-07-29T14:29:23;21.27;;;2.30;;
62709;SDS011;48770;51.624;5.886;2022-07-29T14:31:49;19.95;;;2.53;;
62709;SDS011;48770;51.624;5.886;2022-07-29T14:34:14;15.60;;;2.17;;
62709;SDS011;48770;51.624;5.886;2022-07-29T14:36:40;14.32;;;2.13;;
62709;SDS011;48770;51.624;5.886;2022-07-29T14:39:06;16.83;;;2.13;;
62709;SDS011;48770;51.624;5.886;2022-07-29T14:41:31;6.63;;;2.13;;
62709;SDS011;48770;51.624;5.886;2022-07-29T14:43:56;10.30;;;1.40;;
62709;SDS011;48770;51.624;5.886;2022-07-29T14:46:22;8.32;;;1.90;;
62709;SDS011;48770;51.624;5.886;2022-07-29T14:48:48;7.80;;;1.65;;
62709;SDS011;48770;51.624;5.886;2022-07-29T14:51:13;7.80;;;1.45;;
62709;SDS011;48770;51.624;5.886;2022-07-29T14:53:38;3.65;;;1.30;;
62709;SDS011;48770;51.624;5.886;2022-07-29T14:56:04;6.82;;;1.48;;
62709;SDS011;48770;51.624;5.886;2022-07-29T14:58:29;5.13;;;1.55;;
62709;SDS011;48770;51.624;5.886;2022-07-29T15:00:54;4.37;;;1.13;;
62709;SDS011;48770;51.624;5.886;2022-07-29T15:03:21;3.03;;;1.05;;
62709;SDS011;48770;51.624;5.886;2022-07-29T15:05:47;7.57;;;1.42;;
62709;SDS011;48770;51.624;5.886;2022-07-29T15:08:12;5.45;;;1.10;;
62709;SDS011;48770;51.624;5.886;2022-07-29T15:10:37;0.93;;;0.80;;
62709;SDS011;48770;51.624;5.886;2022-07-29T15:13:03;1.40;;;1.08;;
62709;SDS011;48770;51.624;5.886;2022-07-29T15:15:28;1.30;;;1.08;;
62709;SDS011;48770;51.624;5.886;2022-07-29T15:17:54;2.10;;;0.82;;
62709;SDS011;48770;51.624;5.886;2022-07-29T15:20:19;0.87;;;0.80;;
62709;SDS011;48770;51.624;5.886;2022-07-29T15:22:46;3.80;;;1.15;;
62709;SDS011;48770;51.624;5.886;2022-07-29T15:25:11;1.90;;;1.10;;
62709;SDS011;48770;51.624;5.886;2022-07-29T15:27:37;5.03;;;1.10;;
62709;SDS011;48770;51.624;5.886;2022-07-29T15:30:02;3.30;;;1.20;;
62709;SDS011;48770;51.624;5.886;2022-07-29T15:32:29;2.60;;;1.02;;
62709;SDS011;48770;51.624;5.886;2022-07-29T15:34:54;3.50;;;1.05;;
62709;SDS011;48770;51.624;5.886;2022-07-29T15:37:20;3.40;;;1.30;;
62709;SDS011;48770;51.624;5.886;2022-07-29T15:39:45;1.63;;;1.10;;
62709;SDS011;48770;51.624;5.886;2022-07-29T15:42:11;2.88;;;1.60;;
62709;SDS011;48770;51.624;5.886;2022-07-29T15:44:36;2.13;;;1.13;;
62709;SDS011;48770;51.624;5.886;2022-07-29T15:47:01;6.50;;;1.17;;
62709;SDS011;48770;51.624;5.886;2022-07-29T15:49:35;2.67;;;1.08;;
62709;SDS011;48770;51.624;5.886;2022-07-29T15:52:02;4.50;;;1.48;;